Time;durP1;ratioP1;P1;durP2;ratioP2;P2;SDS_P1;SDS_P2;PMS_P1;PMS_P2;Temp;Humidity;BMP_temperature;BMP_pressure;BME280_temperature;BME280_humidity;BME280_pressure;Samples;Min_cycle;Max_cycle;Signal;HPM_P1;HPM_P2
2023/10/10 00:01:43;;;;;;;18.00;16.07;;;22.30;99.90;;;;;;5005687;28;20461;-54
2023/10/10 00:04:11;;;;;;;19.83;15.63;;;22.40;99.90;;;;;;5006241;28;20593;-56
2023/10/10 00:06:39;;;;;;;19.43;16.33;;;22.30;99.90;;;;;;5010080;28;20511;-57
2023/10/10 00:09:10;;;;;;;21.00;16.07;;;22.30;99.90;;;;;;5001829;28;20466;-59
2023/10/10 00:11:41;;;;;;;16.57;14.33;;;22.30;99.90;;;;;;5009118;28;20454;-56
2023/10/10 00:14:15;;;;;;;20.17;17.17;;;22.30;99.90;;;;;;5007602;28;20466;-56
2023/10/10 00:16:42;;;;;;;19.97;15.80;;;22.30;99.90;;;;;;5009978;28;20453;-57
2023/10/10 00:19:17;;;;;;;17.33;15.47;;;22.30;99.90;;;;;;5009584;28;21495;-56
2023/10/10 00:21:46;;;;;;;22.23;16.60;;;22.30;99.90;;;;;;5014241;28;21145;-55
2023/10/10 00:24:14;;;;;;;20.60;15.67;;;22.40;99.90;;;;;;5013448;28;20457;-59
2023/10/10 00:26:43;;;;;;;18.80;15.20;;;22.30;99.90;;;;;;5008736;28;21290;-56
2023/10/10 00:29:11;;;;;;;21.23;16.47;;;22.30;99.90;;;;;;5007547;28;20811;-60
2023/10/10 00:31:56;;;;;;;18.80;15.90;;;22.30;99.90;;;;;;5007319;28;20469;-55
2023/10/10 00:34:28;;;;;;;18.43;14.97;;;22.30;99.90;;;;;;5007564;28;20466;-56
2023/10/10 00:37:02;;;;;;;18.50;15.27;;;22.30;99.90;;;;;;5005518;28;20474;-57
2023/10/10 00:39:35;;;;;;;17.37;14.13;;;22.20;99.90;;;;;;5005691;28;20494;-58
2023/10/10 00:42:05;;;;;;;18.87;16.33;;;22.30;99.90;;;;;;5005596;28;20473;-58
2023/10/10 00:44:37;;;;;;;18.93;14.97;;;22.30;99.90;;;;;;5003470;28;20794;-59
2023/10/10 00:47:04;;;;;;;18.47;15.10;;;22.30;99.90;;;;;;5006840;28;21827;-53
2023/10/10 00:49:34;;;;;;;18.60;15.00;;;22.30;99.90;;;;;;5009997;28;21087;-55
2023/10/10 00:52:06;;;;;;;17.20;14.40;;;22.30;99.90;;;;;;5008362;28;20834;-52
2023/10/10 00:54:40;;;;;;;26.17;17.07;;;22.20;99.90;;;;;;5009601;28;20544;-58
2023/10/10 00:57:08;;;;;;;17.43;14.33;;;22.20;99.90;;;;;;5007564;28;20462;-57
2023/10/10 00:59:42;;;;;;;16.70;14.00;;;22.20;99.90;;;;;;5013827;28;20458;-56
2023/10/10 01:02:10;;;;;;;17.80;15.67;;;22.20;99.90;;;;;;5012266;28;20536;-58
2023/10/10 01:04:39;;;;;;;17.70;15.10;;;22.20;99.90;;;;;;5010532;28;20450;-54
2023/10/10 01:07:08;;;;;;;16.60;14.53;;;22.20;99.90;;;;;;5015463;28;20600;-59
2023/10/10 01:09:39;;;;;;;18.20;15.33;;;22.20;99.90;;;;;;5014180;28;20462;-57
2023/10/10 01:12:06;;;;;;;17.87;16.13;;;22.20;99.90;;;;;;5015840;28;21009;-57
2023/10/10 01:14:33;;;;;;;18.47;14.53;;;22.20;99.90;;;;;;5009424;28;20457;-60
2023/10/10 01:17:05;;;;;;;15.30;13.70;;;22.20;99.90;;;;;;5011106;28;20449;-58
2023/10/10 01:19:35;;;;;;;19.10;15.13;;;22.20;99.90;;;;;;5014678;28;20462;-55
2023/10/10 01:22:22;;;;;;;16.80;15.00;;;22.20;99.90;;;;;;5017593;28;20484;-54
2023/10/10 01:24:53;;;;;;;16.60;13.77;;;22.20;99.90;;;;;;5018460;28;21468;-56
2023/10/10 01:27:22;;;;;;;14.97;13.43;;;22.20;99.90;;;;;;5016525;28;20527;-57
2023/10/10 01:30:16;;;;;;;16.57;14.47;;;22.20;99.90;;;;;;5008088;28;20589;-53
2023/10/10 01:32:39;;;;;;;18.60;14.60;;;22.20;99.90;;;;;;5011372;28;20705;-56
2023/10/10 01:35:15;;;;;;;17.53;14.93;;;22.30;99.90;;;;;;5013379;28;20454;-55
2023/10/10 01:37:48;;;;;;;15.63;14.07;;;22.20;99.90;;;;;;5016025;28;20599;-57
2023/10/10 01:40:16;;;;;;;18.23;15.93;;;22.10;99.90;;;;;;5013113;28;22189;-56
2023/10/10 01:42:45;;;;;;;16.33;14.47;;;22.20;99.90;;;;;;5015790;28;20831;-57
2023/10/10 01:45:18;;;;;;;21.03;15.63;;;22.20;99.90;;;;;;5011573;28;20489;-54
2023/10/10 01:47:57;;;;;;;19.30;15.10;;;22.20;99.90;;;;;;5010880;28;21124;-53
2023/10/10 01:50:26;;;;;;;16.47;14.13;;;22.10;99.90;;;;;;5011414;28;20461;-59
2023/10/10 01:52:56;;;;;;;16.20;14.40;;;22.10;99.90;;;;;;5011608;28;20461;-55
2023/10/10 01:55:24;;;;;;;18.83;14.47;;;22.10;99.90;;;;;;5006040;28;20461;-55
2023/10/10 01:57:51;;;;;;;17.10;13.83;;;22.10;99.90;;;;;;5014998;28;20469;-54
2023/10/10 02:00:26;;;;;;;16.07;14.57;;;22.10;99.90;;;;;;5012145;28;20468;-59
2023/10/10 02:02:53;;;;;;;17.10;14.53;;;22.20;99.90;;;;;;5012956;28;20511;-57
2023/10/10 02:05:36;;;;;;;15.13;13.53;;;22.10;99.90;;;;;;5013960;28;20468;-55
2023/10/10 02:08:11;;;;;;;16.00;14.23;;;22.10;99.90;;;;;;5013949;28;20552;-56
2023/10/10 02:10:43;;;;;;;15.13;13.57;;;22.10;99.90;;;;;;5015997;28;20463;-54
2023/10/10 02:13:11;;;;;;;17.67;13.90;;;22.10;99.90;;;;;;5015915;28;20490;-56
2023/10/10 02:15:39;;;;;;;16.37;14.17;;;22.10;99.90;;;;;;5016595;28;20465;-57
2023/10/10 02:18:12;;;;;;;13.97;11.90;;;22.10;99.90;;;;;;5011944;28;20465;-57
2023/10/10 02:20:52;;;;;;;15.57;13.43;;;22.10;99.90;;;;;;5018168;28;20465;-57
2023/10/10 02:23:30;;;;;;;17.33;14.17;;;22.10;99.90;;;;;;5014580;28;20977;-56
2023/10/10 02:26:02;;;;;;;14.60;13.13;;;22.10;99.90;;;;;;5014802;28;20465;-59
2023/10/10 02:28:43;;;;;;;16.60;13.37;;;22.00;99.90;;;;;;5009846;28;20458;-58
2023/10/10 02:31:11;;;;;;;15.03;13.27;;;22.10;99.90;;;;;;5013641;28;21283;-59
2023/10/10 02:33:42;;;;;;;15.93;13.20;;;22.10;99.90;;;;;;5013165;28;20465;-56
2023/10/10 02:36:13;;;;;;;15.37;13.77;;;22.00;99.90;;;;;;5017716;28;20458;-60
2023/10/10 02:38:54;;;;;;;14.47;12.53;;;22.10;99.90;;;;;;5011426;28;20458;-58
2023/10/10 02:41:38;;;;;;;15.47;13.23;;;22.10;99.90;;;;;;5014139;28;20465;-57
2023/10/10 02:44:09;;;;;;;16.07;12.90;;;22.10;99.90;;;;;;5009831;28;21258;-60
2023/10/10 02:46:38;;;;;;;14.87;11.87;;;22.10;99.90;;;;;;5012189;28;20990;-53
2023/10/10 02:49:29;;;;;;;14.13;12.10;;;22.20;99.90;;;;;;5010102;28;20454;-58
2023/10/10 02:51:57;;;;;;;15.00;12.37;;;22.10;99.90;;;;;;5015442;28;20461;-59
2023/10/10 02:54:32;;;;;;;14.10;12.60;;;22.10;99.90;;;;;;5011777;28;20462;-53
2023/10/10 02:57:26;;;;;;;16.80;12.47;;;22.00;99.90;;;;;;5011529;28;20551;-56
2023/10/10 02:59:50;;;;;;;13.80;12.17;;;22.10;99.90;;;;;;5016563;28;20455;-59
2023/10/10 03:02:20;;;;;;;16.97;12.83;;;22.00;99.90;;;;;;5012641;28;20458;-59
2023/10/10 03:07:44;;;;;;;13.93;11.83;;;22.20;99.90;;;;;;4953334;28;20483;-55
2023/10/10 03:10:37;;;;;;;15.03;12.70;;;22.10;99.90;;;;;;4997009;28;20456;-56
2023/10/10 03:13:27;;;;;;;13.90;12.50;;;22.00;99.90;;;;;;5013480;28;21121;-54
2023/10/10 03:15:56;;;;;;;13.77;12.13;;;22.00;99.90;;;;;;5012301;28;20454;-55
2023/10/10 03:18:29;;;;;;;15.10;12.80;;;22.10;99.90;;;;;;5010124;28;20493;-53
2023/10/10 03:21:35;;;;;;;14.70;12.30;;;22.00;99.90;;;;;;5010862;28;20457;-57
2023/10/10 03:24:07;;;;;;;14.00;12.33;;;22.10;99.90;;;;;;5015739;28;20465;-58
2023/10/10 03:29:26;;;;;;;14.33;12.53;;;22.00;99.90;;;;;;5015105;28;20458;-57
2023/10/10 03:32:19;;;;;;;14.27;12.77;;;22.10;99.90;;;;;;5012422;28;20465;-53
2023/10/10 03:34:45;;;;;;;14.40;12.23;;;22.10;99.90;;;;;;5013058;28;20458;-57
2023/10/10 03:37:21;;;;;;;15.17;12.53;;;21.90;99.90;;;;;;5012658;28;20676;-59
2023/10/10 03:39:54;;;;;;;14.80;12.17;;;22.10;99.90;;;;;;5015283;28;20572;-53
2023/10/10 05:24:08;;;;;;;10.90;9.40;;;21.90;99.90;;;;;;4981056;28;20472;-57
2023/10/10 05:26:46;;;;;;;12.23;10.97;;;21.90;99.90;;;;;;5012688;28;20500;-53
2023/10/10 05:29:13;;;;;;;12.10;10.57;;;21.90;99.90;;;;;;5009711;28;20910;-57
2023/10/10 05:31:39;;;;;;;12.63;10.23;;;21.90;99.90;;;;;;5009799;28;20469;-59
2023/10/10 05:34:07;;;;;;;10.70;9.60;;;21.90;99.90;;;;;;5008986;28;20472;-56
2023/10/10 05:36:35;;;;;;;11.63;10.43;;;21.90;99.90;;;;;;5012390;28;22501;-59
2023/10/10 05:39:02;;;;;;;11.47;10.37;;;21.90;99.90;;;;;;5004753;28;20472;-54
2023/10/10 05:41:29;;;;;;;11.17;10.07;;;21.90;99.90;;;;;;5014923;28;20519;-60
2023/10/10 05:43:59;;;;;;;11.77;10.00;;;21.90;99.90;;;;;;5005286;28;21154;-59
2023/10/10 05:46:26;;;;;;;10.50;9.50;;;22.00;99.90;;;;;;5009148;28;20462;-54
2023/10/10 05:48:53;;;;;;;10.33;9.13;;;22.00;99.90;;;;;;5012655;28;20478;-56
2023/10/10 05:51:20;;;;;;;11.70;10.47;;;22.00;99.90;;;;;;5012005;28;20466;-59
2023/10/10 05:53:48;;;;;;;10.80;9.70;;;22.10;99.90;;;;;;5012276;28;20453;-58
2023/10/10 05:56:16;;;;;;;12.40;10.10;;;22.00;99.90;;;;;;5005566;28;20583;-56
2023/10/10 05:58:44;;;;;;;11.37;10.17;;;22.00;99.90;;;;;;5009475;28;21292;-59
2023/10/10 06:01:13;;;;;;;11.97;9.87;;;22.00;99.90;;;;;;5007692;28;20454;-57
2023/10/10 06:03:41;;;;;;;10.70;9.60;;;22.00;99.90;;;;;;5007642;28;21030;-54
2023/10/10 06:06:11;;;;;;;10.73;9.40;;;22.10;99.90;;;;;;5014871;28;20477;-55
2023/10/10 06:08:38;;;;;;;11.53;9.97;;;22.10;99.90;;;;;;5013391;28;20555;-54
2023/10/10 06:11:06;;;;;;;11.83;9.93;;;22.10;99.90;;;;;;5018734;28;21075;-55
2023/10/10 06:13:38;;;;;;;11.20;8.70;;;22.10;99.90;;;;;;5013864;28;20460;-55
2023/10/10 06:16:07;;;;;;;13.20;9.40;;;22.10;99.90;;;;;;5010765;28;20462;-56
2023/10/10 06:18:34;;;;;;;11.60;10.30;;;22.10;99.90;;;;;;5008312;28;21591;-57
2023/10/10 06:21:07;;;;;;;14.60;9.67;;;22.10;99.90;;;;;;5012948;28;20462;-59
2023/10/10 06:23:35;;;;;;;10.20;9.10;;;22.20;99.90;;;;;;5014076;28;20966;-57
2023/10/10 06:26:02;;;;;;;14.13;9.67;;;22.10;99.90;;;;;;5013726;28;20469;-58
2023/10/10 06:28:35;;;;;;;18.43;11.43;;;22.10;99.90;;;;;;5012413;28;20466;-58
2023/10/10 06:31:04;;;;;;;15.37;13.00;;;22.10;99.90;;;;;;5013336;28;20463;-54
2023/10/10 06:33:32;;;;;;;24.10;14.57;;;22.10;99.90;;;;;;5013984;28;20454;-60
2023/10/10 06:36:25;;;;;;;28.20;19.40;;;22.10;99.90;;;;;;5012026;28;20493;-58
2023/10/10 06:38:59;;;;;;;36.60;19.57;;;22.10;99.90;;;;;;5016634;28;20450;-55
2023/10/10 06:41:27;;;;;;;32.83;18.07;;;22.10;99.90;;;;;;5015877;28;20608;-55
2023/10/10 06:43:57;;;;;;;29.03;16.77;;;22.10;99.90;;;;;;5014727;28;20962;-58
2023/10/10 06:46:24;;;;;;;29.87;17.93;;;22.00;99.90;;;;;;5010933;28;21241;-56
2023/10/10 06:48:51;;;;;;;19.97;14.87;;;22.10;99.90;;;;;;5006658;28;20664;-60
2023/10/10 06:51:21;;;;;;;20.27;14.70;;;22.10;99.90;;;;;;5012832;28;20454;-59
2023/10/10 06:53:54;;;;;;;21.67;14.60;;;22.00;99.90;;;;;;5015406;28;20445;-58
2023/10/10 06:56:43;;;;;;;19.40;13.83;;;22.10;99.90;;;;;;5007140;28;20453;-58
2023/10/10 06:59:16;;;;;;;21.03;14.00;;;22.10;99.90;;;;;;5010119;28;20457;-57
2023/10/10 07:01:45;;;;;;;18.37;12.00;;;22.10;99.90;;;;;;5013363;28;20462;-59
2023/10/10 07:04:13;;;;;;;15.23;10.50;;;22.10;99.90;;;;;;5004563;28;21240;-57
2023/10/10 07:06:43;;;;;;;14.30;10.67;;;22.20;99.90;;;;;;5005363;28;20469;-59
2023/10/10 07:09:17;;;;;;;15.10;11.07;;;22.20;99.90;;;;;;5014162;28;20896;-56
2023/10/10 07:11:44;;;;;;;13.43;10.20;;;22.20;99.90;;;;;;5015732;28;20496;-59
2023/10/10 07:14:15;;;;;;;24.73;11.50;;;22.20;99.90;;;;;;5013858;28;20453;-56
2023/10/10 07:16:43;;;;;;;14.40;10.27;;;22.20;99.90;;;;;;5013067;28;20462;-57
2023/10/10 07:19:19;;;;;;;17.53;10.93;;;22.20;99.90;;;;;;5012207;28;20582;-60
2023/10/10 07:21:46;;;;;;;18.70;11.13;;;22.20;99.90;;;;;;5017455;28;20719;-57
2023/10/10 07:24:14;;;;;;;11.77;9.10;;;22.30;99.90;;;;;;5016945;28;20511;-56
2023/10/10 07:26:42;;;;;;;16.90;9.93;;;22.20;99.90;;;;;;5015451;28;20469;-56
2023/10/10 07:32:04;;;;;;;9.97;8.87;;;22.30;99.90;;;;;;4995543;28;20462;-60
2023/10/10 07:34:35;;;;;;;11.53;10.33;;;22.30;99.90;;;;;;5015829;28;20463;-54
2023/10/10 07:37:07;;;;;;;11.30;9.60;;;22.40;99.90;;;;;;5014751;28;20493;-59
2023/10/10 07:39:36;;;;;;;12.77;10.40;;;22.30;99.90;;;;;;5013395;28;20461;-56
2023/10/10 07:42:08;;;;;;;14.30;9.60;;;22.40;99.90;;;;;;5012641;28;20941;-58
2023/10/10 07:44:36;;;;;;;14.60;8.83;;;22.30;99.90;;;;;;5016154;28;20486;-59
2023/10/10 07:47:25;;;;;;;12.20;9.07;;;22.40;99.90;;;;;;5011306;28;20459;-58
2023/10/10 07:49:52;;;;;;;9.03;8.23;;;22.40;99.90;;;;;;5009861;28;20469;-57
2023/10/10 07:52:20;;;;;;;10.47;8.37;;;22.40;99.90;;;;;;5014091;28;20592;-57
2023/10/10 07:54:51;;;;;;;13.63;9.77;;;22.40;99.90;;;;;;5016475;28;20494;-60
2023/10/10 07:57:22;;;;;;;10.00;8.60;;;22.40;99.90;;;;;;5015390;28;20488;-56
2023/10/10 07:59:54;;;;;;;11.60;9.00;;;22.40;99.90;;;;;;5013198;28;21631;-58
2023/10/10 08:02:26;;;;;;;11.20;8.77;;;22.40;99.90;;;;;;5012286;28;20490;-59
2023/10/10 08:04:54;;;;;;;10.53;8.77;;;22.50;99.90;;;;;;5013884;28;20460;-54
2023/10/10 08:07:23;;;;;;;13.90;9.87;;;22.40;99.90;;;;;;5016659;28;20458;-59
2023/10/10 08:10:11;;;;;;;9.47;8.50;;;22.40;99.90;;;;;;5016810;28;20467;-55
2023/10/10 08:12:38;;;;;;;10.30;8.17;;;22.40;99.90;;;;;;5015326;28;20446;-56
2023/10/10 08:15:19;;;;;;;11.50;10.33;;;22.40;99.90;;;;;;5015774;28;20942;-56
2023/10/10 08:17:52;;;;;;;10.60;8.53;;;22.40;99.90;;;;;;5013365;28;20457;-57
2023/10/10 08:20:34;;;;;;;11.43;9.73;;;22.40;99.90;;;;;;5014727;28;20606;-57
2023/10/10 08:23:02;;;;;;;13.53;9.53;;;22.40;99.90;;;;;;5013952;28;20473;-55
2023/10/10 08:25:28;;;;;;;9.90;8.63;;;22.40;99.90;;;;;;5016113;28;20461;-58
2023/10/10 08:27:56;;;;;;;10.30;9.30;;;22.40;99.90;;;;;;5015803;28;20523;-58
2023/10/10 08:30:25;;;;;;;11.83;7.90;;;22.50;99.90;;;;;;5011716;28;20980;-58
2023/10/10 08:32:54;;;;;;;9.90;8.03;;;22.40;99.90;;;;;;5009913;28;20464;-58
2023/10/10 08:35:22;;;;;;;14.83;8.30;;;22.40;99.90;;;;;;5012177;28;21266;-57
2023/10/10 08:37:50;;;;;;;10.33;9.20;;;22.40;99.90;;;;;;5012683;28;20561;-55
2023/10/10 08:40:19;;;;;;;10.20;8.60;;;22.50;99.90;;;;;;5012660;28;20989;-60
2023/10/10 08:42:47;;;;;;;12.60;8.57;;;22.50;99.90;;;;;;5008091;28;21122;-57
2023/10/10 08:45:23;;;;;;;11.10;9.60;;;22.50;99.90;;;;;;5008327;28;20704;-54
2023/10/10 08:47:58;;;;;;;10.30;9.10;;;22.40;99.90;;;;;;5011021;28;20591;-54
2023/10/10 08:50:25;;;;;;;10.47;9.23;;;22.50;99.90;;;;;;5012644;28;20489;-53
2023/10/10 08:52:52;;;;;;;9.17;8.17;;;22.50;99.90;;;;;;5012633;28;20461;-52
2023/10/10 08:55:26;;;;;;;12.50;8.67;;;22.50;99.90;;;;;;5014816;28;20464;-56
2023/10/10 08:57:55;;;;;;;9.10;7.90;;;22.50;99.90;;;;;;5017395;28;20460;-51
2023/10/10 09:00:22;;;;;;;10.03;8.07;;;22.50;99.90;;;;;;5015769;28;20488;-57
2023/10/10 09:02:50;;;;;;;10.27;8.27;;;22.50;99.90;;;;;;5014994;28;20462;-55
2023/10/10 09:05:19;;;;;;;10.33;8.80;;;22.50;99.90;;;;;;5008610;28;20465;-60
2023/10/10 09:07:46;;;;;;;13.43;8.90;;;22.50;99.90;;;;;;5010689;28;20469;-60
2023/10/10 09:10:14;;;;;;;11.27;9.17;;;22.50;99.90;;;;;;5013230;28;20469;-56
2023/10/10 09:12:55;;;;;;;10.57;9.37;;;22.50;99.90;;;;;;5015962;28;20489;-57
2023/10/10 09:15:23;;;;;;;9.13;8.23;;;22.60;99.90;;;;;;5014701;28;20465;-57
2023/10/10 09:17:55;;;;;;;10.53;8.40;;;22.50;99.90;;;;;;5012259;28;20462;-54
2023/10/10 09:20:30;;;;;;;11.13;7.90;;;22.60;99.90;;;;;;5016832;28;20515;-56
2023/10/10 09:23:02;;;;;;;9.70;8.63;;;22.50;99.90;;;;;;5017038;28;21238;-60
2023/10/10 09:25:41;;;;;;;9.97;8.97;;;22.60;99.90;;;;;;5019457;28;20549;-59
2023/10/10 09:28:10;;;;;;;8.67;7.87;;;22.60;99.90;;;;;;5015108;28;20480;-57
2023/10/10 09:30:40;;;;;;;8.57;7.73;;;22.60;99.90;;;;;;5018614;28;20454;-58
2023/10/10 09:33:22;;;;;;;9.27;8.33;;;22.70;99.90;;;;;;5009444;28;20541;-59
2023/10/10 09:35:54;;;;;;;10.37;7.63;;;22.60;99.90;;;;;;5020399;28;21091;-58
2023/10/10 09:38:26;;;;;;;8.90;8.00;;;22.60;99.90;;;;;;5014814;28;20486;-54
2023/10/10 09:41:10;;;;;;;8.33;7.50;;;22.60;99.90;;;;;;5015326;28;20469;-60
2023/10/10 09:43:49;;;;;;;10.77;8.40;;;22.60;99.90;;;;;;5011788;28;21160;-55
2023/10/10 09:46:26;;;;;;;9.63;8.73;;;22.60;99.90;;;;;;5021015;28;20531;-54
2023/10/10 09:54:35;;;;;;;8.23;7.43;;;22.60;99.90;;;;;;5013800;28;20857;-60
2023/10/10 09:57:08;;;;;;;7.90;7.10;;;22.60;99.90;;;;;;5019599;28;20456;-56
2023/10/10 09:59:37;;;;;;;9.80;8.23;;;22.60;99.90;;;;;;5020443;28;20464;-55
2023/10/10 10:02:05;;;;;;;9.13;8.00;;;22.60;99.90;;;;;;5020556;28;21907;-57
2023/10/10 10:04:41;;;;;;;8.67;6.93;;;22.60;99.90;;;;;;5019132;28;20671;-58
2023/10/10 10:07:41;;;;;;;8.90;8.00;;;22.60;99.90;;;;;;5016062;28;21245;-59
2023/10/10 10:10:33;;;;;;;8.77;6.40;;;22.60;99.90;;;;;;5017587;28;20484;-56
2023/10/10 10:13:19;;;;;;;8.93;7.70;;;22.60;99.90;;;;;;5017750;28;20474;-57
2023/10/10 10:16:08;;;;;;;9.37;8.47;;;22.60;99.90;;;;;;5020384;28;21064;-60
2023/10/10 10:18:44;;;;;;;9.77;8.77;;;22.60;99.90;;;;;;5016481;28;20465;-59
2023/10/10 10:21:18;;;;;;;8.13;7.33;;;22.70;99.90;;;;;;5017598;28;20962;-58
2023/10/10 10:23:56;;;;;;;8.80;7.10;;;22.60;99.90;;;;;;5016764;28;20459;-59
2023/10/10 10:26:32;;;;;;;9.13;8.03;;;22.60;99.90;;;;;;5017699;28;20460;-58
2023/10/10 10:29:00;;;;;;;8.97;7.70;;;22.70;99.90;;;;;;5019089;28;20469;-58
2023/10/10 10:31:35;;;;;;;7.70;6.97;;;22.60;99.90;;;;;;5018822;28;20788;-60
2023/10/10 10:34:06;;;;;;;10.83;8.20;;;22.70;99.90;;;;;;5020291;28;20457;-59
2023/10/10 10:36:41;;;;;;;8.00;7.20;;;22.70;99.90;;;;;;5019992;28;20461;-60
2023/10/10 10:39:23;;;;;;;8.60;7.77;;;22.70;99.90;;;;;;5017798;28;20460;-56
2023/10/10 10:41:53;;;;;;;8.20;7.40;;;22.60;99.90;;;;;;5018565;28;20465;-56
2023/10/10 10:44:55;;;;;;;9.50;7.87;;;22.60;99.90;;;;;;5018443;28;20452;-56
2023/10/10 10:47:45;;;;;;;7.93;7.13;;;22.60;99.90;;;;;;5014118;28;20460;-58
2023/10/10 10:50:28;;;;;;;7.50;6.43;;;22.70;99.90;;;;;;5015681;28;21208;-56
2023/10/10 10:53:05;;;;;;;7.93;7.13;;;22.60;99.90;;;;;;5019043;28;20460;-58
2023/10/10 10:55:39;;;;;;;9.50;8.13;;;22.60;99.90;;;;;;5016958;28;20544;-57
2023/10/10 10:58:08;;;;;;;7.87;7.17;;;22.70;99.90;;;;;;5014849;28;20464;-57
2023/10/10 11:00:56;;;;;;;7.90;7.10;;;22.70;99.90;;;;;;5013112;28;20452;-59
2023/10/10 11:03:24;;;;;;;8.20;7.50;;;22.70;99.90;;;;;;5014484;28;20460;-56
2023/10/10 11:05:55;;;;;;;8.00;7.20;;;22.70;99.90;;;;;;5014694;28;21512;-60
2023/10/10 11:08:51;;;;;;;9.60;8.60;;;22.60;99.90;;;;;;5014182;28;21174;-59
2023/10/10 11:11:25;;;;;;;10.00;7.10;;;22.60;99.90;;;;;;5014878;28;20482;-59
2023/10/10 11:13:54;;;;;;;8.40;7.60;;;22.70;99.90;;;;;;5016981;28;20459;-57
2023/10/10 11:16:23;;;;;;;7.23;6.50;;;22.70;99.90;;;;;;5014470;28;20553;-55
2023/10/10 11:18:57;;;;;;;9.90;8.00;;;22.60;99.90;;;;;;5018441;28;21291;-59
2023/10/10 11:21:28;;;;;;;8.10;7.37;;;22.60;99.90;;;;;;5014468;28;21465;-60
2023/10/10 11:23:58;;;;;;;9.37;7.30;;;22.70;99.90;;;;;;5016015;28;20465;-55
2023/10/10 11:26:34;;;;;;;10.27;7.23;;;22.60;99.90;;;;;;5015503;28;20465;-53
2023/10/10 11:29:01;;;;;;;8.97;8.07;;;22.60;99.90;;;;;;5014456;28;21304;-55
2023/10/10 11:31:34;;;;;;;7.70;6.27;;;22.60;99.90;;;;;;5013870;28;20983;-59
2023/10/10 11:34:25;;;;;;;8.43;7.60;;;22.60;99.90;;;;;;5016208;28;20458;-56
2023/10/10 11:37:13;;;;;;;8.20;7.30;;;22.60;99.90;;;;;;5015251;28;20953;-54
2023/10/10 11:39:47;;;;;;;7.97;7.27;;;22.70;99.90;;;;;;5009192;28;22272;-55
2023/10/10 11:42:27;;;;;;;7.03;6.37;;;22.60;99.90;;;;;;5011770;28;20541;-59
2023/10/10 11:45:00;;;;;;;21.00;8.00;;;22.60;99.90;;;;;;5013325;28;20595;-57
2023/10/10 11:47:27;;;;;;;8.33;7.00;;;22.70;99.90;;;;;;5016827;28;20580;-56
2023/10/10 11:50:01;;;;;;;7.97;6.00;;;22.60;99.90;;;;;;5013475;28;20474;-59
2023/10/10 11:52:28;;;;;;;8.00;7.20;;;22.60;99.90;;;;;;5010394;28;21016;-60
2023/10/10 11:54:58;;;;;;;12.40;6.37;;;22.70;99.90;;;;;;5011925;28;20458;-55
2023/10/10 11:57:29;;;;;;;10.37;7.23;;;22.60;99.90;;;;;;5008860;28;20465;-58
2023/10/10 11:59:59;;;;;;;14.67;7.33;;;22.60;99.90;;;;;;5006106;28;20458;-56
2023/10/10 12:02:39;;;;;;;7.17;6.27;;;22.60;99.90;;;;;;5004639;28;20465;-56
2023/10/10 12:05:31;;;;;;;9.37;7.03;;;22.60;99.90;;;;;;5007787;28;20458;-58
2023/10/10 12:07:58;;;;;;;7.27;6.50;;;22.60;99.90;;;;;;5011101;28;20977;-56
2023/10/10 12:10:40;;;;;;;9.43;6.80;;;22.60;99.90;;;;;;5011399;28;20478;-59
2023/10/10 12:13:09;;;;;;;7.57;6.60;;;22.60;99.90;;;;;;5010782;28;20454;-56
2023/10/10 12:15:39;;;;;;;8.73;6.50;;;22.60;99.90;;;;;;5009006;28;20468;-54
2023/10/10 12:18:10;;;;;;;8.00;5.83;;;22.60;99.90;;;;;;5008923;28;20955;-58
2023/10/10 12:20:38;;;;;;;6.17;5.63;;;22.70;99.90;;;;;;5011807;28;20458;-61
2023/10/10 12:23:05;;;;;;;10.63;6.93;;;22.60;99.90;;;;;;5011173;28;20465;-60
2023/10/10 12:25:31;;;;;;;6.67;5.93;;;22.70;99.90;;;;;;5009172;28;20467;-56
2023/10/10 12:28:00;;;;;;;9.23;6.73;;;22.70;99.90;;;;;;5009728;28;20468;-60
2023/10/10 12:30:28;;;;;;;8.17;6.67;;;22.60;99.90;;;;;;5016016;28;22628;-61
2023/10/10 12:32:56;;;;;;;7.80;6.33;;;22.60;99.90;;;;;;5014484;28;20461;-58
2023/10/10 12:35:25;;;;;;;6.07;5.47;;;22.70;99.90;;;;;;5009145;28;20473;-61
2023/10/10 12:38:01;;;;;;;11.23;5.33;;;22.60;99.90;;;;;;5013433;28;20545;-59
2023/10/10 12:40:28;;;;;;;9.37;6.33;;;22.60;99.90;;;;;;5013337;28;21164;-57
2023/10/10 12:42:54;;;;;;;11.30;5.87;;;22.60;99.90;;;;;;5016100;28;20465;-56
2023/10/10 12:45:21;;;;;;;6.43;5.50;;;22.60;99.90;;;;;;5008740;28;20462;-55
2023/10/10 12:47:49;;;;;;;11.07;5.80;;;22.60;99.90;;;;;;5016944;28;20600;-61
2023/10/10 12:50:16;;;;;;;8.60;6.20;;;22.60;99.90;;;;;;5012963;28;20469;-58
2023/10/10 12:52:46;;;;;;;6.53;5.53;;;22.60;99.90;;;;;;5011007;28;20458;-61
2023/10/10 12:55:13;;;;;;;6.93;5.30;;;22.60;99.90;;;;;;5011175;28;20549;-59
2023/10/10 12:57:39;;;;;;;7.33;5.10;;;22.60;99.90;;;;;;5014498;28;20477;-58
2023/10/10 13:00:33;;;;;;;7.17;5.60;;;22.60;99.90;;;;;;5009500;28;20588;-61
2023/10/10 13:03:01;;;;;;;6.40;5.07;;;22.60;99.90;;;;;;5015720;28;20501;-58
2023/10/10 13:05:28;;;;;;;9.37;5.53;;;22.50;99.90;;;;;;5008334;28;20457;-58
2023/10/10 13:07:58;;;;;;;6.50;5.37;;;22.50;99.90;;;;;;5016008;28;20477;-60
2023/10/10 13:10:27;;;;;;;8.00;4.93;;;22.50;99.90;;;;;;5015920;28;20479;-59
2023/10/10 13:12:54;;;;;;;8.60;4.80;;;22.50;99.90;;;;;;5013109;28;20461;-58
2023/10/10 13:15:29;;;;;;;6.70;5.47;;;22.50;99.90;;;;;;5010288;28;20455;-61
2023/10/10 13:20:39;;;;;;;6.97;5.20;;;22.50;99.90;;;;;;5011503;28;20457;-60
2023/10/10 13:23:06;;;;;;;6.80;4.63;;;22.50;99.90;;;;;;5014409;28;20465;-60
2023/10/10 13:25:37;;;;;;;8.03;4.97;;;22.50;99.90;;;;;;5009089;28;20549;-61
2023/10/10 13:28:09;;;;;;;7.50;4.20;;;22.50;99.90;;;;;;5010989;28;20459;-58
2023/10/10 13:30:38;;;;;;;6.80;5.00;;;22.50;99.90;;;;;;5012345;28;20466;-60
2023/10/10 13:33:06;;;;;;;7.50;4.33;;;22.50;99.90;;;;;;5011333;28;20473;-57
2023/10/10 13:35:36;;;;;;;5.77;3.87;;;22.50;99.90;;;;;;5008981;28;20443;-60
2023/10/10 13:38:06;;;;;;;6.83;4.00;;;22.50;99.90;;;;;;5011532;28;20509;-54
2023/10/10 13:40:37;;;;;;;5.13;4.57;;;22.40;99.90;;;;;;5012815;28;20469;-57
2023/10/10 13:43:08;;;;;;;7.93;4.30;;;22.40;99.90;;;;;;5015152;28;20490;-58
2023/10/10 13:45:37;;;;;;;9.80;4.40;;;22.40;99.90;;;;;;5012908;28;21270;-57
2023/10/10 13:48:08;;;;;;;8.37;4.00;;;22.40;99.90;;;;;;5014791;28;20457;-60
2023/10/10 13:50:41;;;;;;;8.90;4.47;;;22.40;99.90;;;;;;5015413;28;20469;-58
2023/10/10 13:53:12;;;;;;;8.43;4.43;;;22.40;99.90;;;;;;5017882;28;20457;-59
2023/10/10 13:55:39;;;;;;;6.50;4.83;;;22.40;99.80;;;;;;5011944;28;20454;-60
2023/10/10 13:58:07;;;;;;;6.93;4.33;;;22.40;99.80;;;;;;5016555;28;20548;-57
2023/10/10 14:00:36;;;;;;;5.37;4.07;;;22.40;99.60;;;;;;5010591;28;20603;-60
2023/10/10 14:03:04;;;;;;;11.40;5.00;;;22.40;99.60;;;;;;5013645;28;20461;-59
2023/10/10 14:05:33;;;;;;;8.17;5.27;;;22.40;99.60;;;;;;5013945;28;20468;-60
2023/10/10 14:08:01;;;;;;;7.43;3.77;;;22.40;99.40;;;;;;5019446;28;20482;-57
2023/10/10 14:10:35;;;;;;;7.90;5.10;;;22.40;99.30;;;;;;5015393;28;20569;-56
2023/10/10 14:13:18;;;;;;;5.90;4.30;;;22.40;99.30;;;;;;5012548;28;20467;-54
2023/10/10 14:15:54;;;;;;;7.13;4.70;;;22.40;99.20;;;;;;5012523;28;20458;-57
2023/10/10 14:18:22;;;;;;;6.20;4.97;;;22.40;99.20;;;;;;5017452;28;20453;-57
2023/10/10 14:20:50;;;;;;;7.80;4.20;;;22.30;98.90;;;;;;5016136;28;20458;-52
2023/10/10 14:23:19;;;;;;;9.70;4.27;;;22.40;98.90;;;;;;5013941;28;20482;-59
2023/10/10 14:25:47;;;;;;;8.10;5.10;;;22.40;98.80;;;;;;5013224;28;20490;-59
2023/10/10 14:28:16;;;;;;;8.43;4.67;;;22.40;98.50;;;;;;5010812;28;20467;-61
2023/10/10 14:30:43;;;;;;;8.23;4.00;;;22.30;98.30;;;;;;5018392;28;20482;-57
2023/10/10 14:33:10;;;;;;;7.67;5.50;;;22.30;98.40;;;;;;5016417;28;20997;-57
2023/10/10 14:35:37;;;;;;;11.80;3.90;;;22.30;98.50;;;;;;5009333;28;20948;-56
2023/10/10 14:38:04;;;;;;;11.43;4.93;;;22.30;98.80;;;;;;5001403;28;20458;-58
2023/10/10 14:40:32;;;;;;;7.60;4.20;;;22.30;99.20;;;;;;5008158;28;22402;-60
2023/10/10 14:43:05;;;;;;;12.53;4.73;;;22.30;98.80;;;;;;5010793;28;21185;-59
2023/10/10 14:45:33;;;;;;;6.83;4.37;;;22.30;99.00;;;;;;5005468;28;20930;-59
2023/10/10 14:48:04;;;;;;;7.50;4.70;;;22.40;99.70;;;;;;5011828;28;20830;-65
2023/10/10 14:50:36;;;;;;;7.40;4.60;;;22.40;99.40;;;;;;5012486;28;20730;-61
2023/10/10 14:53:08;;;;;;;9.07;4.63;;;22.40;99.70;;;;;;5007113;28;20462;-61
2023/10/10 14:55:39;;;;;;;8.13;3.97;;;22.50;99.90;;;;;;5006100;28;20461;-61
2023/10/10 14:58:09;;;;;;;6.40;5.27;;;22.50;99.90;;;;;;5010447;28;20842;-59
2023/10/10 15:00:41;;;;;;;9.10;5.30;;;22.50;99.90;;;;;;5009649;28;20466;-56